Time;durP1;ratioP1;P1;durP2;ratioP2;P2;SDS_P1;SDS_P2;PMS_P1;PMS_P2;Temp;Humidity;BMP_temperature;BMP_pressure;BME280_temperature;BME280_humidity;BME280_pressure;Samples;Min_cycle;Max_cycle;Signal;HPM_P1;HPM_P2
2024/02/29 00:02:11;;;;;;;22.90;11.98;;;11.70;97.20;;;;;;5092937;28;20035;-71
2024/02/29 00:04:37;;;;;;;26.25;10.20;;;11.70;97.10;;;;;;5094443;28;20106;-71
2024/02/29 00:07:03;;;;;;;23.48;6.80;;;11.70;97.10;;;;;;5101572;28;20875;-71
2024/02/29 00:09:29;;;;;;;10.68;5.55;;;11.70;97.00;;;;;;5094488;28;20027;-71
2024/02/29 00:11:55;;;;;;;18.67;8.93;;;11.70;97.00;;;;;;5093190;28;20134;-71
2024/02/29 00:14:21;;;;;;;19.73;11.65;;;11.60;97.10;;;;;;5092471;28;20123;-71
2024/02/29 00:16:46;;;;;;;10.57;5.60;;;11.50;97.30;;;;;;5089047;28;20471;-71
2024/02/29 00:19:12;;;;;;;29.85;8.80;;;11.40;97.50;;;;;;5097280;28;20031;-71
2024/02/29 00:21:38;;;;;;;10.98;5.90;;;11.40;97.40;;;;;;5105719;28;20106;-71
2024/02/29 00:24:04;;;;;;;19.20;10.15;;;11.40;97.50;;;;;;5093276;28;20118;-71
2024/02/29 00:26:30;;;;;;;15.18;7.20;;;11.30;97.50;;;;;;5093630;28;20024;-71
2024/02/29 00:28:56;;;;;;;19.83;9.65;;;11.30;97.60;;;;;;5092791;28;20044;-71
2024/02/29 00:31:22;;;;;;;10.77;6.50;;;11.30;97.60;;;;;;5089462;28;20085;-71
2024/02/29 00:33:47;;;;;;;19.75;8.98;;;11.30;97.60;;;;;;5088917;28;20089;-71
2024/02/29 00:36:14;;;;;;;12.55;6.15;;;11.30;97.70;;;;;;5099347;28;20024;-71
2024/02/29 00:38:40;;;;;;;18.15;10.32;;;11.20;97.70;;;;;;5089200;28;20056;-71
2024/02/29 00:41:07;;;;;;;19.23;8.75;;;11.20;97.70;;;;;;5089413;28;20439;-71
2024/02/29 00:43:32;;;;;;;14.38;8.93;;;11.20;97.80;;;;;;5100655;28;20042;-70
2024/02/29 00:45:58;;;;;;;11.05;6.40;;;11.20;97.70;;;;;;5100044;28;20028;-71
2024/02/29 00:48:24;;;;;;;13.57;6.75;;;11.10;97.80;;;;;;5100040;28;20467;-71
2024/02/29 00:50:49;;;;;;;21.98;10.57;;;11.10;97.80;;;;;;5094664;28;20475;-71
2024/02/29 00:53:15;;;;;;;20.80;10.68;;;11.10;97.80;;;;;;5093044;28;20101;-71
2024/02/29 00:55:40;;;;;;;12.23;6.63;;;11.20;97.80;;;;;;5087462;28;20028;-71
2024/02/29 00:58:06;;;;;;;20.67;11.95;;;11.20;97.80;;;;;;5087038;28;20050;-71
2024/02/29 01:00:32;;;;;;;15.43;7.68;;;11.30;97.70;;;;;;5097852;28;20028;-71
2024/02/29 01:02:57;;;;;;;21.85;11.70;;;11.30;97.80;;;;;;5097671;28;20063;-71
2024/02/29 01:05:24;;;;;;;16.73;7.00;;;11.30;97.50;;;;;;5090217;28;20090;-71
2024/02/29 01:07:50;;;;;;;18.65;8.70;;;11.30;97.50;;;;;;5096398;28;20112;-71
2024/02/29 01:10:15;;;;;;;23.15;11.88;;;11.30;97.40;;;;;;5097185;28;20483;-71
2024/02/29 01:12:41;;;;;;;13.63;8.25;;;11.30;97.50;;;;;;5088537;28;20049;-71
2024/02/29 01:15:13;;;;;;;8.07;5.15;;;11.20;97.50;;;;;;5092028;28;20388;-71
2024/02/29 01:17:41;;;;;;;9.90;5.32;;;11.20;97.50;;;;;;5091560;28;20510;-71
2024/02/29 01:20:08;;;;;;;10.38;5.05;;;11.20;97.50;;;;;;5099495;28;20162;-71
2024/02/29 01:22:37;;;;;;;8.65;4.80;;;11.10;97.60;;;;;;5105949;28;20032;-71
2024/02/29 01:25:03;;;;;;;15.55;6.35;;;11.10;97.60;;;;;;5088671;28;20035;-71
2024/02/29 01:27:29;;;;;;;17.52;8.38;;;11.00;97.70;;;;;;5104131;28;20043;-71
2024/02/29 01:29:55;;;;;;;15.90;7.45;;;11.00;97.80;;;;;;5091683;28;20094;-70
2024/02/29 01:32:21;;;;;;;16.50;8.02;;;11.00;97.80;;;;;;5089590;28;20080;-70
2024/02/29 01:34:47;;;;;;;8.50;5.07;;;11.00;97.70;;;;;;5090857;28;20116;-70
2024/02/29 01:37:13;;;;;;;9.80;5.15;;;11.00;97.70;;;;;;5088352;28;20036;-70
2024/02/29 01:39:41;;;;;;;16.50;7.05;;;10.90;97.80;;;;;;5101010;28;20020;-70
2024/02/29 01:42:07;;;;;;;8.07;4.55;;;10.90;97.80;;;;;;5099866;28;20203;-70
2024/02/29 01:44:32;;;;;;;8.90;3.45;;;11.00;97.80;;;;;;5101592;28;20062;-70
2024/02/29 01:46:59;;;;;;;10.27;4.13;;;10.90;97.70;;;;;;5105983;28;20034;-70
2024/02/29 01:49:26;;;;;;;15.63;7.43;;;10.90;97.80;;;;;;5093031;28;20111;-70
2024/02/29 01:51:52;;;;;;;14.02;7.00;;;10.80;97.80;;;;;;5095660;28;20024;-70
2024/02/29 01:54:18;;;;;;;5.50;3.10;;;10.90;97.80;;;;;;5099127;28;20504;-70
2024/02/29 01:56:44;;;;;;;10.90;5.25;;;10.80;97.80;;;;;;5091212;28;20028;-70
2024/02/29 01:59:11;;;;;;;14.43;5.10;;;10.80;97.90;;;;;;5094375;28;20024;-70
2024/02/29 02:01:37;;;;;;;19.77;7.88;;;10.80;97.90;;;;;;5092732;28;20028;-70
2024/02/29 02:04:03;;;;;;;10.90;5.78;;;10.70;98.00;;;;;;5098270;28;20093;-71
2024/02/29 02:06:29;;;;;;;11.95;5.25;;;10.70;98.20;;;;;;5101416;28;20035;-70
2024/02/29 02:08:55;;;;;;;18.23;7.07;;;10.70;98.10;;;;;;5101738;28;20030;-70
2024/02/29 02:11:21;;;;;;;9.60;4.68;;;10.70;98.10;;;;;;5094352;28;20524;-70
2024/02/29 02:13:46;;;;;;;18.90;7.68;;;10.60;98.10;;;;;;5100598;28;20032;-70
2024/02/29 02:16:12;;;;;;;13.38;4.53;;;10.60;98.20;;;;;;5089521;28;20016;-70
2024/02/29 02:18:38;;;;;;;14.07;6.47;;;10.60;98.10;;;;;;5091392;28;20030;-71
2024/02/29 02:21:04;;;;;;;10.52;6.10;;;10.60;98.10;;;;;;5100599;28;20031;-70
2024/02/29 02:23:30;;;;;;;11.13;6.93;;;10.60;98.10;;;;;;5097720;28;20031;-70
2024/02/29 02:25:58;;;;;;;9.70;5.32;;;10.60;98.20;;;;;;5098300;28;20027;-71
2024/02/29 02:28:27;;;;;;;12.57;5.72;;;10.60;98.30;;;;;;5096092;28;20425;-70
2024/02/29 02:30:53;;;;;;;12.63;6.53;;;10.60;98.20;;;;;;5106432;28;20031;-71
2024/02/29 02:33:22;;;;;;;15.63;8.07;;;10.60;98.20;;;;;;5110609;28;20034;-70
2024/02/29 02:35:48;;;;;;;13.57;6.60;;;10.60;98.30;;;;;;5090087;28;20048;-71
2024/02/29 02:38:14;;;;;;;15.40;7.97;;;10.60;98.30;;;;;;5103843;28;20055;-70
2024/02/29 02:40:39;;;;;;;15.68;6.28;;;10.60;98.30;;;;;;5090968;28;20016;-70
2024/02/29 02:43:05;;;;;;;13.75;5.47;;;10.50;98.20;;;;;;5101525;28;20531;-70
2024/02/29 02:45:31;;;;;;;16.85;8.07;;;10.60;98.20;;;;;;5089955;28;20124;-70
2024/02/29 02:47:56;;;;;;;8.32;4.95;;;10.60;98.30;;;;;;5100689;28;20039;-70
2024/02/29 02:50:23;;;;;;;14.32;5.80;;;10.60;98.20;;;;;;5089478;28;20032;-70
2024/02/29 02:52:49;;;;;;;10.00;5.72;;;10.50;98.40;;;;;;5089307;28;20040;-70
2024/02/29 02:55:15;;;;;;;11.55;5.03;;;10.60;98.30;;;;;;5089159;28;20033;-70
2024/02/29 02:57:41;;;;;;;12.40;4.47;;;10.50;98.20;;;;;;5088761;28;20052;-70
2024/02/29 03:00:10;;;;;;;12.52;6.72;;;10.60;98.20;;;;;;5088532;28;20031;-70
2024/02/29 03:02:39;;;;;;;13.55;5.63;;;10.50;98.20;;;;;;5100709;28;20115;-70
2024/02/29 03:05:06;;;;;;;11.60;5.70;;;10.60;98.20;;;;;;5107492;28;20032;-70
2024/02/29 03:07:32;;;;;;;15.30;7.15;;;10.60;98.20;;;;;;5097246;28;20420;-70
2024/02/29 03:09:58;;;;;;;12.82;7.10;;;10.60;98.30;;;;;;5088784;28;20119;-70
2024/02/29 03:12:24;;;;;;;13.18;7.43;;;10.60;98.20;;;;;;5102589;27;20043;-70
2024/02/29 03:14:49;;;;;;;15.02;7.50;;;10.60;98.10;;;;;;5093212;27;20414;-70
2024/02/29 03:17:15;;;;;;;11.43;4.75;;;10.60;98.10;;;;;;5100150;27;20038;-70
2024/02/29 03:19:43;;;;;;;18.25;7.95;;;10.60;98.10;;;;;;5114838;27;20030;-70
2024/02/29 03:22:09;;;;;;;5.60;3.83;;;10.60;98.10;;;;;;5092795;27;20051;-70
2024/02/29 03:24:44;;;;;;;14.35;7.55;;;10.60;98.20;;;;;;5092700;28;20060;-70
2024/02/29 03:27:13;;;;;;;4.85;3.17;;;10.60;98.30;;;;;;5101082;28;20039;-70
2024/02/29 03:29:39;;;;;;;21.17;7.57;;;10.60;98.20;;;;;;5095125;27;20024;-70
2024/02/29 03:32:05;;;;;;;9.55;3.95;;;10.60;98.20;;;;;;5101054;28;20045;-70
2024/02/29 03:34:31;;;;;;;8.52;4.65;;;10.60;98.20;;;;;;5103618;28;20491;-70
2024/02/29 03:36:56;;;;;;;6.55;4.28;;;10.70;98.30;;;;;;5089101;28;20039;-71
2024/02/29 03:39:22;;;;;;;16.02;7.38;;;10.60;98.20;;;;;;5088222;28;20063;-71
2024/02/29 03:41:47;;;;;;;14.52;5.28;;;10.60;98.20;;;;;;5100533;28;20487;-71
2024/02/29 03:44:13;;;;;;;13.05;6.13;;;10.60;98.40;;;;;;5089641;28;20040;-71
2024/02/29 03:46:39;;;;;;;10.07;4.03;;;10.50;98.30;;;;;;5105336;27;20137;-71
2024/02/29 03:49:04;;;;;;;7.65;4.82;;;10.50;98.50;;;;;;5088563;28;20032;-71
2024/02/29 03:51:30;;;;;;;7.50;3.30;;;10.50;98.50;;;;;;5098964;28;20236;-71
2024/02/29 03:53:56;;;;;;;14.57;7.25;;;10.50;98.50;;;;;;5098722;28;20063;-70
2024/02/29 03:56:22;;;;;;;7.03;4.28;;;10.50;98.60;;;;;;5100373;28;20034;-70
2024/02/29 03:58:48;;;;;;;12.00;6.35;;;10.60;98.50;;;;;;5094187;28;20043;-71
2024/02/29 04:01:13;;;;;;;9.88;5.22;;;10.60;98.60;;;;;;5088289;28;20024;-71
2024/02/29 04:03:40;;;;;;;9.07;5.03;;;10.60;98.50;;;;;;5109397;28;20111;-71
2024/02/29 04:06:08;;;;;;;16.30;6.90;;;10.60;98.50;;;;;;5102823;28;20464;-71
2024/02/29 04:08:35;;;;;;;5.97;3.10;;;10.60;98.50;;;;;;5094901;28;20040;-71
2024/02/29 04:11:02;;;;;;;9.82;4.75;;;10.60;98.50;;;;;;5094044;28;20586;-71
2024/02/29 04:13:28;;;;;;;4.90;3.35;;;10.50;98.60;;;;;;5097455;28;20037;-71
2024/02/29 04:15:54;;;;;;;6.65;3.80;;;10.50;98.60;;;;;;5094113;28;20092;-71
2024/02/29 04:18:20;;;;;;;7.82;4.43;;;10.60;98.70;;;;;;5105509;28;20034;-71
2024/02/29 04:20:46;;;;;;;7.75;4.07;;;10.50;98.70;;;;;;5092625;28;20032;-71
2024/02/29 04:23:11;;;;;;;13.23;6.18;;;10.50;98.80;;;;;;5096846;28;20039;-71
2024/02/29 04:25:37;;;;;;;16.15;6.80;;;10.50;98.80;;;;;;5092845;28;20594;-71
2024/02/29 04:28:06;;;;;;;14.43;6.30;;;10.50;98.80;;;;;;5092431;28;20092;-71
2024/02/29 04:30:32;;;;;;;9.50;4.93;;;10.50;98.80;;;;;;5094797;28;20684;-71
2024/02/29 04:33:00;;;;;;;10.75;5.80;;;10.50;98.80;;;;;;5101397;28;20032;-71
2024/02/29 04:35:25;;;;;;;12.63;3.65;;;10.50;98.80;;;;;;5087790;28;20028;-71
2024/02/29 04:37:51;;;;;;;6.32;3.40;;;10.50;98.80;;;;;;5108386;28;20096;-71
2024/02/29 04:40:17;;;;;;;6.78;3.83;;;10.50;98.80;;;;;;5106571;28;20532;-71
2024/02/29 04:42:42;;;;;;;7.22;4.03;;;10.50;98.80;;;;;;5107829;28;20429;-71
2024/02/29 04:45:09;;;;;;;11.45;5.38;;;10.50;98.80;;;;;;5091078;28;20067;-71
2024/02/29 04:47:35;;;;;;;9.20;4.20;;;10.50;98.80;;;;;;5088370;28;20081;-71
2024/02/29 04:50:00;;;;;;;11.30;4.93;;;10.50;98.90;;;;;;5086859;28;20395;-71
2024/02/29 04:52:27;;;;;;;7.97;4.68;;;10.50;99.00;;;;;;5112111;28;20062;-71
2024/02/29 04:54:52;;;;;;;13.20;5.68;;;10.40;99.00;;;;;;5096345;28;20578;-71
2024/02/29 04:57:18;;;;;;;10.27;5.13;;;10.40;98.90;;;;;;5103148;28;20110;-71
2024/02/29 04:59:46;;;;;;;13.23;7.00;;;10.40;99.00;;;;;;5101750;28;20206;-71
2024/02/29 05:02:11;;;;;;;6.60;4.10;;;10.40;99.00;;;;;;5104251;28;20031;-71
2024/02/29 05:04:37;;;;;;;10.38;4.47;;;10.40;99.00;;;;;;5091509;28;20032;-71
2024/02/29 05:07:04;;;;;;;12.95;4.47;;;10.50;99.00;;;;;;5105640;28;20487;-71
2024/02/29 05:09:29;;;;;;;11.65;6.03;;;10.50;99.00;;;;;;5102550;28;20036;-71
2024/02/29 05:11:55;;;;;;;10.20;5.05;;;10.40;99.00;;;;;;5098347;28;20023;-71
2024/02/29 05:14:21;;;;;;;12.00;5.05;;;10.40;99.00;;;;;;5095384;28;20036;-71
2024/02/29 05:16:47;;;;;;;12.15;4.60;;;10.40;99.10;;;;;;5090655;28;20036;-71
2024/02/29 05:19:13;;;;;;;15.23;7.72;;;10.40;99.00;;;;;;5101892;27;20027;-71
2024/02/29 05:21:38;;;;;;;4.93;3.80;;;10.40;99.00;;;;;;5106407;28;20038;-70
2024/02/29 05:24:04;;;;;;;9.65;3.90;;;10.40;99.00;;;;;;5098349;28;20035;-71
2024/02/29 05:26:30;;;;;;;3.30;2.45;;;10.50;99.00;;;;;;5090774;28;20513;-71
2024/02/29 05:28:56;;;;;;;13.07;5.15;;;10.40;99.00;;;;;;5090432;28;20105;-71
2024/02/29 05:31:22;;;;;;;6.55;3.45;;;10.40;99.00;;;;;;5098166;28;20028;-71
2024/02/29 05:33:47;;;;;;;13.55;5.78;;;10.40;99.00;;;;;;5101705;28;20032;-71
2024/02/29 05:36:16;;;;;;;9.02;4.85;;;10.40;99.00;;;;;;5109979;28;20023;-70
2024/02/29 05:38:44;;;;;;;11.43;5.28;;;10.50;99.00;;;;;;5096861;28;20044;-71
2024/02/29 05:41:09;;;;;;;10.68;4.85;;;10.50;98.90;;;;;;5091371;28;20024;-71
2024/02/29 05:43:35;;;;;;;12.02;5.82;;;10.50;98.90;;;;;;5094062;28;20107;-71
2024/02/29 05:46:01;;;;;;;14.38;5.50;;;10.50;98.90;;;;;;5099701;28;20390;-72
2024/02/29 05:48:26;;;;;;;9.35;5.10;;;10.50;98.80;;;;;;5091463;28;20044;-72
2024/02/29 05:50:52;;;;;;;15.88;7.32;;;10.50;98.70;;;;;;5097211;28;20032;-72
2024/02/29 05:53:18;;;;;;;7.47;4.53;;;10.50;98.80;;;;;;5103083;28;20073;-71
2024/02/29 05:55:43;;;;;;;6.53;3.63;;;10.40;99.00;;;;;;5090080;28;20059;-71
2024/02/29 05:58:09;;;;;;;10.52;4.57;;;10.40;98.70;;;;;;5092017;28;20036;-71
2024/02/29 06:00:34;;;;;;;11.90;6.45;;;10.30;98.80;;;;;;5105678;28;20081;-71
2024/02/29 06:03:00;;;;;;;8.63;3.78;;;10.40;98.90;;;;;;5103009;28;20028;-71
2024/02/29 06:05:27;;;;;;;9.38;4.65;;;10.40;98.90;;;;;;5096756;28;20490;-71
2024/02/29 06:07:53;;;;;;;11.10;4.68;;;10.30;98.90;;;;;;5093999;28;20157;-72
2024/02/29 06:10:19;;;;;;;8.45;3.83;;;10.30;99.00;;;;;;5104270;28;20023;-71
2024/02/29 06:12:45;;;;;;;8.27;3.33;;;10.30;99.00;;;;;;5106425;28;20069;-71
2024/02/29 06:15:11;;;;;;;9.48;4.88;;;10.30;99.10;;;;;;5097654;28;20050;-72
2024/02/29 06:17:37;;;;;;;10.98;4.18;;;10.30;99.30;;;;;;5091021;28;20127;-71
2024/02/29 06:20:04;;;;;;;7.72;4.05;;;10.30;99.10;;;;;;5084975;28;20030;-72
2024/02/29 06:22:29;;;;;;;8.75;4.50;;;10.30;98.90;;;;;;5097469;28;20092;-71
2024/02/29 06:24:56;;;;;;;6.13;3.72;;;10.30;98.90;;;;;;5094800;28;20032;-72
2024/02/29 06:27:23;;;;;;;11.65;4.95;;;10.30;98.90;;;;;;5072695;28;20040;-71
2024/02/29 06:29:49;;;;;;;14.60;5.57;;;10.30;98.90;;;;;;5101019;28;20020;-72
2024/02/29 06:32:14;;;;;;;9.07;4.60;;;10.40;98.70;;;;;;5100906;28;20447;-72
2024/02/29 06:34:41;;;;;;;17.10;6.07;;;10.40;98.80;;;;;;5094205;28;20035;-72
2024/02/29 06:37:07;;;;;;;6.60;3.17;;;10.40;98.70;;;;;;5092664;28;20547;-71
2024/02/29 06:39:33;;;;;;;6.40;3.80;;;10.40;98.50;;;;;;5105127;28;20027;-70
2024/02/29 06:42:01;;;;;;;10.60;5.20;;;10.40;98.50;;;;;;5091180;28;20036;-71
2024/02/29 06:44:27;;;;;;;10.05;3.67;;;10.40;98.60;;;;;;5098258;28;20024;-71
2024/02/29 06:46:53;;;;;;;12.45;4.60;;;10.40;98.60;;;;;;5089416;28;20028;-72
2024/02/29 06:49:23;;;;;;;5.55;3.85;;;10.30;98.50;;;;;;5099585;28;20468;-72
2024/02/29 06:51:50;;;;;;;6.43;3.53;;;10.30;98.60;;;;;;5091767;28;20177;-72
2024/02/29 06:54:17;;;;;;;9.73;5.25;;;10.30;98.70;;;;;;5090059;28;20092;-69
2024/02/29 06:56:44;;;;;;;11.38;3.50;;;10.30;98.70;;;;;;5091987;28;20028;-71
2024/02/29 06:59:10;;;;;;;5.15;3.17;;;10.20;98.60;;;;;;5091009;28;20032;-71
2024/02/29 07:01:36;;;;;;;14.85;2.58;;;10.20;98.70;;;;;;5088322;28;20055;-71
2024/02/29 07:04:02;;;;;;;12.73;4.88;;;10.20;98.80;;;;;;5087681;28;20039;-71
2024/02/29 07:06:28;;;;;;;8.15;4.75;;;10.20;98.80;;;;;;5090108;28;20024;-71
2024/02/29 07:08:54;;;;;;;6.95;3.42;;;10.20;98.80;;;;;;5107812;28;20379;-71
2024/02/29 07:11:20;;;;;;;5.88;2.70;;;10.20;98.80;;;;;;5106819;28;20039;-71
2024/02/29 07:13:46;;;;;;;6.40;3.92;;;10.20;98.80;;;;;;5088299;28;20040;-71
2024/02/29 07:16:13;;;;;;;10.18;4.47;;;10.30;98.80;;;;;;5085242;28;20024;-71
2024/02/29 07:18:39;;;;;;;9.73;3.75;;;10.30;98.80;;;;;;5095376;28;20116;-71
2024/02/29 07:21:04;;;;;;;6.35;2.70;;;10.20;98.80;;;;;;5107627;27;20062;-71
2024/02/29 07:23:31;;;;;;;11.55;5.03;;;10.30;98.80;;;;;;5090045;28;20024;-71
2024/02/29 07:25:58;;;;;;;4.90;2.90;;;10.30;98.70;;;;;;5098312;28;20028;-71
2024/02/29 07:28:23;;;;;;;12.35;4.78;;;10.30;98.70;;;;;;5090138;28;20039;-71
2024/02/29 07:30:49;;;;;;;10.32;4.15;;;10.40;98.70;;;;;;5090038;28;20027;-71
2024/02/29 07:33:15;;;;;;;10.90;4.68;;;10.40;98.70;;;;;;5098631;28;20045;-72
2024/02/29 07:35:40;;;;;;;10.35;3.90;;;10.30;98.70;;;;;;5086537;28;20530;-72
2024/02/29 07:38:06;;;;;;;6.45;3.72;;;10.40;98.70;;;;;;5095472;28;20552;-71
2024/02/29 07:40:32;;;;;;;6.40;3.22;;;10.40;98.60;;;;;;5097299;28;20034;-71
2024/02/29 07:42:57;;;;;;;9.02;4.47;;;10.40;98.60;;;;;;5089955;28;20028;-71
2024/02/29 07:45:23;;;;;;;6.22;4.07;;;10.30;98.60;;;;;;5097636;28;20051;-71
2024/02/29 07:47:49;;;;;;;5.05;2.67;;;10.30;98.70;;;;;;5091376;28;20047;-71
2024/02/29 07:50:14;;;;;;;7.80;3.53;;;10.30;98.80;;;;;;5101312;28;20044;-71
2024/02/29 07:52:40;;;;;;;6.72;3.58;;;10.40;98.80;;;;;;5086939;28;20548;-71
2024/02/29 07:55:06;;;;;;;6.85;3.78;;;10.30;98.90;;;;;;5091864;28;20375;-71
2024/02/29 07:57:32;;;;;;;7.68;4.25;;;10.30;98.90;;;;;;5097308;28;20118;-71
2024/02/29 07:59:58;;;;;;;8.48;3.90;;;10.30;99.00;;;;;;5089488;28;20020;-71
2024/02/29 08:02:24;;;;;;;5.38;3.13;;;10.30;99.10;;;;;;5098799;28;20031;-71
2024/02/29 08:04:52;;;;;;;8.68;4.38;;;10.30;99.10;;;;;;5095412;28;20066;-71
2024/02/29 08:07:18;;;;;;;5.10;2.65;;;10.30;99.10;;;;;;5095465;28;20028;-73
2024/02/29 08:09:43;;;;;;;7.63;3.45;;;10.30;99.10;;;;;;5080266;28;20085;-72
2024/02/29 08:12:10;;;;;;;11.65;4.10;;;10.30;99.10;;;;;;5096046;28;20089;-73
2024/02/29 08:14:36;;;;;;;2.95;2.38;;;10.30;99.20;;;;;;5100953;28;20032;-73
2024/02/29 08:17:01;;;;;;;5.65;3.10;;;10.30;99.20;;;;;;5101689;28;20864;-73
2024/02/29 08:19:27;;;;;;;5.88;3.65;;;10.30;99.20;;;;;;5108512;28;20035;-73
2024/02/29 08:21:52;;;;;;;4.93;3.13;;;10.30;99.30;;;;;;5091877;28;20116;-74
2024/02/29 08:24:18;;;;;;;6.80;3.35;;;10.30;99.30;;;;;;5108125;28;20118;-79
2024/02/29 08:26:44;;;;;;;7.53;3.45;;;10.30;99.20;;;;;;5096180;28;20032;-73
2024/02/29 08:29:13;;;;;;;5.55;2.90;;;10.30;99.50;;;;;;5097079;28;20048;-72
2024/02/29 08:31:40;;;;;;;4.35;2.30;;;10.30;99.30;;;;;;5087750;28;20024;-73
2024/02/29 08:34:06;;;;;;;10.05;4.95;;;10.30;99.30;;;;;;5098755;28;20384;-73
2024/02/29 08:36:31;;;;;;;7.97;4.13;;;10.30;99.30;;;;;;5095042;28;20035;-73
2024/02/29 08:38:58;;;;;;;6.90;2.97;;;10.40;99.30;;;;;;5099102;28;20753;-73
2024/02/29 08:41:24;;;;;;;6.35;3.90;;;10.40;99.30;;;;;;5088307;28;20024;-73
2024/02/29 08:43:50;;;;;;;6.05;2.95;;;10.40;99.30;;;;;;5090679;28;20024;-73
2024/02/29 08:46:16;;;;;;;8.48;4.43;;;10.40;99.30;;;;;;5106370;28;20028;-73
2024/02/29 08:48:48;;;;;;;4.75;2.05;;;10.40;99.40;;;;;;5102672;28;20051;-76
2024/02/29 08:51:14;;;;;;;8.60;4.82;;;10.40;99.30;;;;;;5089533;28;20032;-72
2024/02/29 08:53:39;;;;;;;8.68;5.45;;;10.40;99.30;;;;;;5089254;28;20131;-72
2024/02/29 08:56:05;;;;;;;7.97;2.88;;;10.40;99.30;;;;;;5087694;28;20035;-72
2024/02/29 08:58:31;;;;;;;7.70;3.80;;;10.50;99.30;;;;;;5094514;28;20765;-72
2024/02/29 09:00:56;;;;;;;7.28;3.60;;;10.50;99.30;;;;;;5087846;28;20419;-72
2024/02/29 09:03:22;;;;;;;5.55;3.65;;;10.50;99.30;;;;;;5090535;28;20031;-72
2024/02/29 09:05:48;;;;;;;4.22;2.67;;;10.50;99.30;;;;;;5096197;28;20027;-71
2024/02/29 09:08:14;;;;;;;4.53;2.92;;;10.50;99.20;;;;;;5087608;28;20040;-72
2024/02/29 09:10:40;;;;;;;7.10;3.85;;;10.40;99.30;;;;;;5088660;28;20024;-72
2024/02/29 09:13:06;;;;;;;7.88;2.67;;;10.40;99.40;;;;;;5088893;28;20084;-73
2024/02/29 09:15:32;;;;;;;3.65;2.08;;;10.40;99.50;;;;;;5088230;28;20032;-72
2024/02/29 09:17:58;;;;;;;10.35;4.55;;;10.40;99.50;;;;;;5092933;28;20042;-73
2024/02/29 09:20:23;;;;;;;7.25;4.15;;;10.40;99.60;;;;;;5107162;28;20028;-73
2024/02/29 09:22:49;;;;;;;3.40;2.30;;;10.50;99.60;;;;;;5090085;28;20032;-72
2024/02/29 09:25:17;;;;;;;8.32;4.07;;;10.50;99.60;;;;;;5087253;28;20024;-71
2024/02/29 09:27:44;;;;;;;4.40;2.28;;;10.60;99.50;;;;;;5089887;28;20082;-72
2024/02/29 09:30:13;;;;;;;7.18;3.70;;;10.60;99.50;;;;;;5092710;28;20040;-72
2024/02/29 09:32:39;;;;;;;3.47;2.28;;;10.60;99.50;;;;;;5091934;28;20036;-72
2024/02/29 09:35:05;;;;;;;4.00;2.70;;;10.60;99.50;;;;;;5098372;28;20032;-70
2024/02/29 09:37:31;;;;;;;5.55;2.95;;;10.60;99.50;;;;;;5091239;28;20043;-73
2024/02/29 09:39:56;;;;;;;7.65;4.15;;;10.60;99.50;;;;;;5098362;28;20036;-72
2024/02/29 09:42:26;;;;;;;3.97;2.25;;;10.60;99.60;;;;;;5109031;28;20136;-72
2024/02/29 09:45:01;;;;;;;5.65;3.00;;;10.60;99.60;;;;;;5088832;28;20438;-73
2024/02/29 09:47:28;;;;;;;6.95;4.00;;;10.60;99.70;;;;;;5101161;28;20084;-72
2024/02/29 09:49:56;;;;;;;3.75;2.28;;;10.70;99.70;;;;;;5091791;28;20042;-72
2024/02/29 09:52:25;;;;;;;19.00;4.22;;;10.70;99.70;;;;;;5093369;28;20040;-73
2024/02/29 09:54:51;;;;;;;10.23;4.60;;;10.70;99.70;;;;;;5092478;28;20109;-72
2024/02/29 09:57:17;;;;;;;12.45;5.18;;;10.70;99.80;;;;;;5090848;28;20065;-72
2024/02/29 09:59:43;;;;;;;7.55;3.22;;;10.70;99.80;;;;;;5093669;28;20421;-72
2024/02/29 10:02:15;;;;;;;4.95;2.97;;;10.70;99.80;;;;;;5110564;28;20023;-72
2024/02/29 10:04:41;;;;;;;5.88;3.28;;;10.60;99.80;;;;;;5096384;28;20480;-72
2024/02/29 10:07:07;;;;;;;4.15;2.38;;;10.70;99.90;;;;;;5101816;28;20071;-72
2024/02/29 10:09:33;;;;;;;8.32;3.83;;;10.70;99.90;;;;;;5088320;28;20054;-72
2024/02/29 10:11:59;;;;;;;6.88;3.78;;;10.70;99.90;;;;;;5106631;28;20028;-72
2024/02/29 10:14:30;;;;;;;9.15;3.78;;;10.70;99.90;;;;;;5092907;28;20040;-73
2024/02/29 10:16:56;;;;;;;3.30;2.42;;;10.70;99.90;;;;;;5096337;28;20035;-72
2024/02/29 10:19:23;;;;;;;6.85;4.10;;;10.70;99.90;;;;;;5099514;27;20032;-72
2024/02/29 10:21:50;;;;;;;4.57;2.90;;;10.70;99.90;;;;;;5095961;28;20032;-72
2024/02/29 10:24:19;;;;;;;6.75;3.30;;;10.70;99.90;;;;;;5094448;28;20063;-72
2024/02/29 10:26:46;;;;;;;6.28;3.00;;;10.70;99.90;;;;;;5096548;28;20054;-72
2024/02/29 10:29:14;;;;;;;9.10;4.38;;;10.70;99.90;;;;;;5099254;28;20071;-72
2024/02/29 10:31:40;;;;;;;12.73;5.25;;;10.70;99.90;;;;;;5107304;28;20475;-72
2024/02/29 10:34:10;;;;;;;5.55;3.03;;;10.70;99.90;;;;;;5090754;28;20035;-72
2024/02/29 10:36:35;;;;;;;4.63;3.13;;;10.70;99.90;;;;;;5101737;28;20040;-72
2024/02/29 10:39:01;;;;;;;8.93;3.85;;;10.70;99.90;;;;;;5108846;28;20031;-72
2024/02/29 10:41:32;;;;;;;6.35;3.63;;;10.70;99.90;;;;;;5098457;28;20077;-72
2024/02/29 10:44:03;;;;;;;11.80;5.70;;;10.80;99.90;;;;;;5094325;28;20032;-72
2024/02/29 10:46:29;;;;;;;2.53;2.25;;;10.80;99.90;;;;;;5103487;28;20084;-72
2024/02/29 10:49:02;;;;;;;9.00;4.65;;;10.80;99.90;;;;;;5106938;28;20367;-72
2024/02/29 10:51:37;;;;;;;9.13;4.25;;;10.80;99.90;;;;;;5109450;28;20119;-72
2024/02/29 10:54:16;;;;;;;6.68;3.92;;;10.90;99.90;;;;;;5100293;28;20040;-72
2024/02/29 10:56:45;;;;;;;9.57;4.05;;;10.90;99.90;;;;;;5100669;28;20774;-73
2024/02/29 10:59:15;;;;;;;6.93;3.35;;;10.80;99.90;;;;;;5091440;28;20032;-72
2024/02/29 11:01:41;;;;;;;7.28;3.00;;;10.90;99.90;;;;;;5106502;28;20034;-73
2024/02/29 11:04:07;;;;;;;11.75;3.72;;;11.00;99.90;;;;;;5098604;28;20058;-72
2024/02/29 11:06:48;;;;;;;11.02;4.80;;;10.90;99.90;;;;;;5092451;28;20387;-72
2024/02/29 11:09:21;;;;;;;5.45;3.03;;;10.90;99.90;;;;;;5109895;28;20032;-72
2024/02/29 11:11:48;;;;;;;7.57;4.25;;;11.00;99.90;;;;;;5110067;28;20459;-72
2024/02/29 11:14:17;;;;;;;6.50;3.50;;;11.00;99.90;;;;;;5104425;28;20039;-72
2024/02/29 11:16:45;;;;;;;8.95;3.63;;;11.00;99.90;;;;;;5088860;28;20059;-72
2024/02/29 11:19:18;;;;;;;6.90;4.10;;;11.00;99.90;;;;;;5098271;27;20031;-72
2024/02/29 11:21:44;;;;;;;7.95;4.05;;;11.00;99.90;;;;;;5093851;27;20078;-76
2024/02/29 11:24:22;;;;;;;7.47;4.07;;;11.00;99.90;;;;;;5093162;28;20027;-80
2024/02/29 11:26:55;;;;;;;10.70;4.57;;;11.00;99.90;;;;;;5088043;28;20472;-72
2024/02/29 11:29:22;;;;;;;;;;;11.00;99.90;;;;;;5095724;28;20048;-72
2024/02/29 11:31:50;;;;;;;8.57;4.18;;;11.00;99.90;;;;;;5099897;28;19934;-72
2024/02/29 11:34:17;;;;;;;4.10;2.55;;;11.10;99.90;;;;;;5099865;28;20032;-72
2024/02/29 11:36:45;;;;;;;4.97;2.75;;;11.10;99.90;;;;;;5087517;28;20028;-72
2024/02/29 11:39:11;;;;;;;3.80;2.92;;;11.10;99.90;;;;;;5101088;28;20504;-72
2024/02/29 11:41:37;;;;;;;10.88;5.35;;;11.10;99.90;;;;;;5089488;28;20078;-72
2024/02/29 11:44:03;;;;;;;18.55;4.20;;;11.10;99.90;;;;;;5087276;28;20505;-72
2024/02/29 11:46:29;;;;;;;6.45;3.83;;;11.10;99.90;;;;;;5089644;28;20024;-72
2024/02/29 11:48:56;;;;;;;3.83;2.40;;;11.10;99.90;;;;;;5089314;28;20038;-72
2024/02/29 11:51:23;;;;;;;9.15;3.72;;;11.10;99.90;;;;;;5107848;28;20053;-72
2024/02/29 11:53:49;;;;;;;6.47;4.28;;;11.20;99.90;;;;;;5093056;28;20409;-72
2024/02/29 11:56:15;;;;;;;6.38;3.25;;;11.20;99.90;;;;;;5098218;28;20533;-72
2024/02/29 11:58:41;;;;;;;13.32;6.07;;;11.20;99.90;;;;;;5088949;28;20027;-72
2024/02/29 12:01:11;;;;;;;12.32;6.13;;;11.30;99.90;;;;;;5096552;28;20027;-72
2024/02/29 12:03:37;;;;;;;16.75;6.18;;;11.30;99.90;;;;;;5088917;28;20039;-72
2024/02/29 12:06:03;;;;;;;9.48;4.75;;;11.40;99.90;;;;;;5086378;28;20036;-72
2024/02/29 12:08:30;;;;;;;5.05;3.25;;;11.50;99.90;;;;;;5091549;28;20099;-72
2024/02/29 12:11:00;;;;;;;11.40;4.78;;;11.50;99.80;;;;;;5100323;28;20119;-72
2024/02/29 12:13:30;;;;;;;8.20;4.45;;;11.50;99.90;;;;;;5091472;28;20037;-72
2024/02/29 12:15:56;;;;;;;7.50;3.63;;;11.50;99.90;;;;;;5088011;28;20036;-72
2024/02/29 12:18:22;;;;;;;6.38;3.25;;;11.60;99.80;;;;;;5095129;28;20708;-72
2024/02/29 12:20:49;;;;;;;9.13;4.50;;;11.60;99.80;;;;;;5105639;27;20071;-72
2024/02/29 12:23:19;;;;;;;13.05;5.70;;;11.50;99.80;;;;;;5091405;28;20028;-72
2024/02/29 12:25:45;;;;;;;8.27;4.63;;;11.60;99.80;;;;;;5097380;28;20024;-72
2024/02/29 12:28:15;;;;;;;4.53;3.17;;;11.60;99.80;;;;;;5090360;28;20044;-72
2024/02/29 12:30:44;;;;;;;10.07;5.85;;;11.60;99.80;;;;;;5096800;28;20027;-72
2024/02/29 12:33:12;;;;;;;7.57;4.28;;;11.60;99.90;;;;;;5102151;28;20024;-72
2024/02/29 12:35:38;;;;;;;13.35;6.55;;;11.60;99.90;;;;;;5095120;28;20031;-72
2024/02/29 12:38:04;;;;;;;4.97;3.08;;;11.60;99.90;;;;;;5090093;28;20020;-72
2024/02/29 12:40:32;;;;;;;11.93;5.80;;;11.70;99.80;;;;;;5096247;28;20015;-72